Repto Antillano, Puerto Rico
Current Conditions -  °F | °C
As of 4:50 PM on Tuesday 25 Nov 2014 (Local Time) from TJBQ Reporting Station
Broken Clouds Broken Clouds  
Wind Chill: 77°   Ceiling: 7500
Heat Index: 78°   Visibility: 10mi
Dew Point: 72°   Wind: 10mph
Humidity: 83%   Direction: 110°ESE
Pressure: 30.01"   Gusts: NA
Location:  18.2038°N, 67.1453°W
Report Text: TJBQ 252050Z 11009KT 10SM SCT055 BKN075 25/22 A3001 RMK RWY08 ATIS Y
Loading
Personal Weather Stations






























Interactive Weather Map New forecast layout! Learn more

10-Day Weather Forecast

Advertisements
Track Severe Weather on mobile